Time;durP1;ratioP1;P1;durP2;ratioP2;P2;SDS_P1;SDS_P2;PMS_P1;PMS_P2;Temp;Humidity;BMP_temperature;BMP_pressure;BME280_temperature;BME280_humidity;BME280_pressure;Samples;Min_cycle;Max_cycle;Signal;HPM_P1;HPM_P2
2022/08/21 00:02:26;;;;;;;0.90;0.90;;;;;;;22.39;54.82;96833.28;10319652;28;20049;-30
2022/08/21 00:07:26;;;;;;;0.93;0.88;;;;;;;22.52;55.34;96827.19;10321764;28;20030;-30
2022/08/21 00:12:27;;;;;;;0.90;0.90;;;;;;;22.44;54.53;96826.44;10324909;28;20037;-31
2022/08/21 00:17:27;;;;;;;1.10;1.00;;;;;;;22.32;54.46;96820.63;10323135;28;20129;-29
2022/08/21 00:22:28;;;;;;;0.90;0.90;;;;;;;22.34;54.59;96834.22;10322286;28;20308;-29
2022/08/21 00:27:28;;;;;;;0.70;0.70;;;;;;;22.29;54.69;96824.06;10334669;28;20034;-31
2022/08/21 00:32:28;;;;;;;1.00;1.00;;;;;;;22.27;54.67;96823.25;10336535;28;20046;-31
2022/08/21 00:37:29;;;;;;;0.80;0.80;;;;;;;22.25;54.68;96817.34;10333110;28;20105;-30
2022/08/21 00:42:30;;;;;;;0.80;0.80;;;;;;;22.26;54.82;96808.81;10337581;28;21088;-29
2022/08/21 00:47:30;;;;;;;0.75;0.75;;;;;;;22.37;54.59;96806.94;10335650;28;20409;-29
2022/08/21 00:52:33;;;;;;;0.98;0.93;;;;;;;22.52;54.91;96808.47;10337182;28;20099;-29
2022/08/21 00:57:42;;;;;;;0.80;0.80;;;;;;;22.42;54.56;96802.66;10333819;28;20504;-30
2022/08/21 01:02:43;;;;;;;0.82;0.82;;;;;;;22.36;54.50;96801.84;10335631;28;20101;-29
2022/08/21 01:07:44;;;;;;;0.80;0.80;;;;;;;22.30;54.59;96802.78;10334550;28;20026;-29
2022/08/21 01:12:45;;;;;;;0.80;0.80;;;;;;;22.28;54.72;96794.31;10337148;28;20535;-30
2022/08/21 01:17:46;;;;;;;0.80;0.80;;;;;;;22.27;54.71;96792.63;10331933;28;20130;-29
2022/08/21 01:22:47;;;;;;;0.93;0.85;;;;;;;22.29;54.74;96790.91;10334998;28;20088;-30
2022/08/21 01:27:48;;;;;;;1.30;0.80;;;;;;;22.29;54.70;96798.56;10336514;28;20057;-30
2022/08/21 01:32:48;;;;;;;0.60;0.60;;;;;;;22.39;54.40;96792.44;10333966;28;20038;-29
2022/08/21 01:37:49;;;;;;;1.33;0.88;;;;;;;22.52;54.65;96788.91;10328949;28;20042;-31
2022/08/21 01:42:49;;;;;;;0.80;0.80;;;;;;;22.44;54.33;96788.19;10330121;28;20085;-30
2022/08/21 01:47:49;;;;;;;0.93;0.90;;;;;;;22.34;54.41;96789.16;10328378;28;20034;-29
2022/08/21 01:52:51;;;;;;;1.07;0.90;;;;;;;22.30;54.51;96782.38;10325207;28;20096;-31
2022/08/21 01:57:51;;;;;;;0.60;0.60;;;;;;;22.31;54.52;96784.06;10329223;28;20393;-30
2022/08/21 02:02:52;;;;;;;1.07;0.73;;;;;;;22.28;54.62;96778.16;10328598;28;20042;-29
2022/08/21 02:07:55;;;;;;;0.80;0.80;;;;;;;22.27;54.64;96774.78;10326903;28;20294;-29
2022/08/21 02:12:56;;;;;;;0.90;0.80;;;;;;;22.25;54.57;96773.97;10327564;28;20073;-30
2022/08/21 02:17:59;;;;;;;1.13;0.90;;;;;;;22.31;54.29;96767.94;10325538;28;20026;-30
2022/08/21 02:23:00;;;;;;;0.75;0.75;;;;;;;22.51;54.33;96765.94;10326350;28;20041;-30
2022/08/21 02:28:07;;;;;;;0.52;0.52;;;;;;;22.41;54.24;96767.78;10328132;28;20382;-31
2022/08/21 02:33:10;;;;;;;1.55;1.00;;;;;;;22.34;54.31;96761.09;10326768;28;20076;-29
2022/08/21 02:38:15;;;;;;;1.05;0.80;;;;;;;22.31;54.45;96758.56;10324162;28;20065;-29
2022/08/21 02:43:17;;;;;;;0.77;0.70;;;;;;;22.28;54.69;96757.75;10328133;28;20393;-29
2022/08/21 02:48:22;;;;;;;0.93;0.60;;;;;;;22.22;54.68;96745.13;10324838;28;20400;-29
2022/08/21 02:53:23;;;;;;;1.15;0.90;;;;;;;22.24;54.66;96748.47;10320795;28;20038;-29
2022/08/21 02:58:31;;;;;;;0.73;0.73;;;;;;;22.23;54.87;96752.72;10326932;28;20034;-29
2022/08/21 03:03:34;;;;;;;0.70;0.70;;;;;;;22.37;54.77;96749.97;10321416;28;20038;-29
2022/08/21 03:08:36;;;;;;;0.63;0.60;;;;;;;22.49;54.18;96742.19;10322675;28;20038;-30
2022/08/21 03:13:36;;;;;;;0.60;0.60;;;;;;;22.40;54.24;96748.22;10326628;28;20045;-29
2022/08/21 03:18:38;;;;;;;1.40;0.80;;;;;;;22.34;54.28;96748.31;10323953;28;20516;-29
2022/08/21 03:23:41;;;;;;;1.20;0.95;;;;;;;22.32;54.28;96744.94;10323757;28;20622;-29
2022/08/21 03:28:42;;;;;;;0.90;0.80;;;;;;;22.29;54.46;96734.78;10325791;28;20034;-30
2022/08/21 03:33:42;;;;;;;0.73;0.70;;;;;;;22.29;54.53;96739.88;10322196;28;20034;-29
2022/08/21 03:38:42;;;;;;;2.20;0.93;;;;;;;22.27;54.39;96736.53;10322663;28;20604;-29
2022/08/21 03:43:43;;;;;;;0.70;0.70;;;;;;;22.25;54.47;96737.41;10325372;28;20049;-30
2022/08/21 03:48:44;;;;;;;0.80;0.80;;;;;;;22.33;54.39;96736.41;10322138;28;20296;-31
2022/08/21 03:53:44;;;;;;;0.68;0.68;;;;;;;22.48;54.22;96736.22;10319769;28;20039;-29
2022/08/21 03:58:45;;;;;;;1.10;0.80;;;;;;;22.35;54.09;96728.75;10323802;28;20034;-32
2022/08/21 04:03:45;;;;;;;0.77;0.77;;;;;;;22.30;54.35;96741.56;10323717;28;20042;-30
2022/08/21 04:08:46;;;;;;;0.67;0.67;;;;;;;22.27;54.33;96739.06;10322605;28;20512;-29
2022/08/21 04:13:47;;;;;;;0.50;0.50;;;;;;;22.23;54.64;96745.06;10324190;28;20386;-30
2022/08/21 04:18:47;;;;;;;0.70;0.70;;;;;;;22.22;54.42;96747.66;10320167;28;20293;-30
2022/08/21 04:23:47;;;;;;;0.67;0.67;;;;;;;22.24;54.50;96745.94;10322060;28;20547;-29
2022/08/21 04:28:48;;;;;;;0.73;0.60;;;;;;;22.22;54.41;96743.38;10324586;28;20041;-29
2022/08/21 04:33:48;;;;;;;2.00;0.60;;;;;;;22.34;54.25;96747.47;10318889;28;20034;-31
2022/08/21 04:38:49;;;;;;;0.70;0.53;;;;;;;22.46;54.02;96748.16;10320784;28;20415;-32
2022/08/21 04:43:49;;;;;;;0.77;0.77;;;;;;;22.38;54.00;96749.94;10323567;28;20455;-30
2022/08/21 04:48:50;;;;;;;0.75;0.70;;;;;;;22.30;54.33;96758.59;10321784;28;20169;-29
2022/08/21 04:53:56;;;;;;;0.65;0.60;;;;;;;22.28;54.29;96767.97;10322332;28;20381;-31
2022/08/21 04:58:59;;;;;;;0.60;0.60;;;;;;;22.25;54.57;96763.78;10323983;28;20064;-30
2022/08/21 05:04:02;;;;;;;0.70;0.70;;;;;;;22.26;54.26;96765.44;10319118;28;20062;-30
2022/08/21 05:09:04;;;;;;;0.80;0.80;;;;;;;22.26;54.34;96764.59;10320902;28;20052;-30
2022/08/21 05:14:04;;;;;;;0.70;0.70;;;;;;;22.24;54.34;96767.16;10329694;28;20034;-29
2022/08/21 05:19:05;;;;;;;1.20;0.70;;;;;;;22.35;54.03;96774.66;10327963;28;20049;-29
2022/08/21 05:24:06;;;;;;;0.80;0.70;;;;;;;22.47;53.77;96770.25;10328541;28;20030;-29
2022/08/21 05:29:06;;;;;;;0.85;0.68;;;;;;;22.36;54.01;96769.56;10330516;28;20440;-30
2022/08/21 05:34:07;;;;;;;0.80;0.68;;;;;;;22.31;53.91;96767.94;10329189;28;20046;-30
2022/08/21 05:39:08;;;;;;;0.90;0.80;;;;;;;22.21;54.21;96772.31;10327509;28;20576;-29
2022/08/21 05:44:08;;;;;;;1.97;0.90;;;;;;;22.23;54.40;96770.56;10325246;28;20488;-29
2022/08/21 05:49:09;;;;;;;0.93;0.80;;;;;;;22.21;54.58;96767.22;10329307;28;20046;-30
2022/08/21 05:54:09;;;;;;;1.00;0.90;;;;;;;22.21;54.52;96767.22;10323950;28;20505;-29
2022/08/21 05:59:10;;;;;;;1.07;0.97;;;;;;;22.21;54.37;96761.25;10329400;28;20298;-30
2022/08/21 06:04:11;;;;;;;0.93;0.70;;;;;;;22.33;53.93;96756.81;10327780;28;20301;-30
2022/08/21 06:09:11;;;;;;;0.70;0.70;;;;;;;22.47;53.74;96749.03;10326945;28;20026;-29
2022/08/21 06:14:16;;;;;;;0.50;0.50;;;;;;;22.34;53.87;96748.31;10328554;28;20046;-30
2022/08/21 06:19:16;;;;;;;1.67;0.80;;;;;;;22.30;54.21;96746.66;10327460;28;20041;-29
2022/08/21 06:24:16;;;;;;;0.80;0.80;;;;;;;22.29;54.10;96755.19;10324547;28;20505;-29
2022/08/21 06:29:17;;;;;;;1.00;0.90;;;;;;;22.26;54.24;96749.28;10328264;28;20030;-30
2022/08/21 06:34:18;;;;;;;0.77;0.77;;;;;;;22.25;54.39;96755.25;10326058;28;20038;-29
2022/08/21 06:39:19;;;;;;;0.52;0.52;;;;;;;22.20;54.50;96755.31;10324939;28;20104;-31
2022/08/21 06:44:19;;;;;;;1.05;0.90;;;;;;;22.06;54.41;96731.72;10327529;28;20064;-29
2022/08/21 06:49:19;;;;;;;0.57;0.52;;;;;;;22.33;53.99;96751.72;10326112;28;20491;-30
2022/08/21 06:54:20;;;;;;;0.93;0.87;;;;;;;22.48;53.93;96748.97;10320985;28;20089;-29
2022/08/21 06:59:20;;;;;;;0.65;0.60;;;;;;;22.34;53.96;96743.22;10326891;28;20380;-29
2022/08/21 07:04:21;;;;;;;0.50;0.50;;;;;;;22.27;54.16;96741.63;10324755;28;20053;-30
2022/08/21 07:09:21;;;;;;;0.70;0.70;;;;;;;22.22;54.40;96733.19;10324621;28;20052;-31
2022/08/21 07:14:22;;;;;;;0.73;0.70;;;;;;;22.22;54.41;96733.19;10326360;28;20030;-29
2022/08/21 07:19:22;;;;;;;1.70;0.80;;;;;;;22.23;54.38;96749.34;10324083;28;20045;-30
2022/08/21 07:24:23;;;;;;;0.70;0.70;;;;;;;22.21;54.41;96741.69;10323481;28;20640;-29
2022/08/21 07:29:23;;;;;;;1.27;0.90;;;;;;;22.20;54.42;96746.81;10326092;28;20166;-30
2022/08/21 07:34:23;;;;;;;0.60;0.60;;;;;;;22.32;53.96;96749.22;10322034;28;20049;-29
2022/08/21 07:39:24;;;;;;;0.80;0.60;;;;;;;22.46;53.82;96743.06;10322909;28;20042;-29
2022/08/21 07:44:24;;;;;;;0.60;0.60;;;;;;;22.35;54.01;96747.47;10326034;28;20414;-30
2022/08/21 07:49:25;;;;;;;0.97;0.50;;;;;;;22.25;54.20;96748.47;10324109;28;20038;-29
2022/08/21 07:54:25;;;;;;;1.07;0.70;;;;;;;22.23;54.44;96750.16;10321053;28;20030;-31
2022/08/21 07:59:26;;;;;;;0.80;0.80;;;;;;;22.19;54.41;96748.53;10327712;28;20452;-29
2022/08/21 08:04:26;;;;;;;0.90;0.70;;;;;;;22.19;54.40;96735.78;10325934;28;20045;-30
2022/08/21 08:09:26;;;;;;;0.50;0.50;;;;;;;22.18;54.58;96739.22;10324765;28;20034;-30
2022/08/21 08:14:27;;;;;;;1.37;0.70;;;;;;;22.16;54.48;96733.25;10326416;28;20042;-30
2022/08/21 08:19:27;;;;;;;0.80;0.73;;;;;;;22.28;54.01;96725.44;10324863;28;20034;-30
2022/08/21 08:24:28;;;;;;;0.77;0.70;;;;;;;22.37;53.64;96715.09;10323189;28;20125;-29
2022/08/21 08:29:28;;;;;;;0.97;0.70;;;;;;;22.32;54.21;96718.59;10324828;28;20096;-29
2022/08/21 08:34:30;;;;;;;1.17;0.80;;;;;;;22.25;54.25;96717.00;10318932;28;20046;-31
2022/08/21 08:39:31;;;;;;;0.82;0.75;;;;;;;22.20;54.32;96713.66;10321068;28;20030;-29
2022/08/21 08:44:31;;;;;;;0.70;0.70;;;;;;;22.19;54.39;96707.72;10324137;28;20042;-30
2022/08/21 08:49:40;;;;;;;0.70;0.70;;;;;;;22.19;54.48;96709.44;10329876;28;20105;-30
2022/08/21 08:54:51;;;;;;;1.30;0.93;;;;;;;22.18;54.58;96700.94;10322406;28;20416;-29
2022/08/21 08:59:55;;;;;;;0.68;0.65;;;;;;;22.16;54.48;96689.91;10331712;28;20065;-30
2022/08/21 09:04:56;;;;;;;0.95;0.80;;;;;;;22.30;53.98;96690.56;10322561;28;20030;-29
2022/08/21 09:10:12;;;;;;;0.60;0.50;;;;;;;22.42;53.70;96680.22;10329325;28;20472;-30
2022/08/21 09:15:17;;;;;;;0.52;0.52;;;;;;;22.30;54.09;96685.44;10330757;28;20030;-30
2022/08/21 09:20:40;;;;;;;0.77;0.70;;;;;;;22.24;54.37;96679.59;10329305;28;20450;-29
2022/08/21 09:25:58;;;;;;;1.27;0.93;;;;;;;22.15;54.28;96669.56;10325593;28;20045;-29
2022/08/21 09:31:02;;;;;;;1.23;0.80;;;;;;;22.19;54.43;96672.03;10325991;28;20089;-29
2022/08/21 09:36:04;;;;;;;0.73;0.63;;;;;;;22.21;54.31;96675.41;10328075;28;20038;-31
2022/08/21 09:41:10;;;;;;;1.08;0.85;;;;;;;22.20;54.34;96673.72;10328793;28;20034;-29
2022/08/21 09:46:25;;;;;;;1.75;0.60;;;;;;;22.18;54.64;96664.41;10327884;28;20046;-29
2022/08/21 09:51:35;;;;;;;0.63;0.55;;;;;;;22.35;53.98;96662.41;10330319;28;20030;-30
2022/08/21 10:02:30;;;;;;;1.15;0.57;;;;;;;22.28;54.17;96661.69;10326130;28;20084;-31
2022/08/21 10:07:32;;;;;;;0.85;0.80;;;;;;;22.24;54.21;96649.81;10327368;28;20027;-29
2022/08/21 10:12:38;;;;;;;0.70;0.70;;;;;;;22.21;54.29;96639.69;10329530;28;20049;-30
2022/08/21 10:17:48;;;;;;;;;;;;;;;22.21;54.41;96636.28;10324433;28;20042;-29
2022/08/21 10:23:14;;;;;;;1.33;0.80;;;;;;;22.17;54.47;96635.50;10323128;28;19957;-30
2022/08/21 10:28:26;;;;;;;0.90;0.70;;;;;;;22.18;54.54;96631.25;10328731;28;20045;-30
2022/08/21 10:33:52;;;;;;;0.70;0.70;;;;;;;22.23;54.18;96625.19;10326217;28;20123;-30
2022/08/21 10:39:20;;;;;;;1.10;0.80;;;;;;;22.40;53.86;96630.84;10320311;28;20046;-29
2022/08/21 10:44:28;;;;;;;0.60;0.60;;;;;;;22.35;53.96;96626.72;10327177;28;20029;-30
2022/08/21 10:49:43;;;;;;;0.85;0.80;;;;;;;22.23;54.23;96627.75;10326730;28;20043;-29
2022/08/21 10:54:52;;;;;;;0.93;0.60;;;;;;;22.20;54.42;96620.16;10319194;28;20072;-31
2022/08/21 11:00:03;;;;;;;1.23;0.80;;;;;;;22.19;54.52;96615.06;10328145;28;20125;-30
2022/08/21 11:05:24;;;;;;;0.65;0.52;;;;;;;22.21;54.41;96624.38;10325143;28;20093;-29
2022/08/21 11:10:30;;;;;;;0.80;0.80;;;;;;;22.17;54.59;96611.72;10324398;28;20040;-30
2022/08/21 11:15:54;;;;;;;0.85;0.85;;;;;;;22.18;54.49;96615.94;10326205;28;20035;-29
2022/08/21 11:21:06;;;;;;;0.70;0.60;;;;;;;22.32;54.16;96608.91;10322373;28;20413;-29
2022/08/21 11:26:17;;;;;;;1.05;0.95;;;;;;;22.42;53.78;96618.97;10320722;28;20414;-29
2022/08/21 11:31:31;;;;;;;0.52;0.52;;;;;;;22.33;54.04;96619.06;10324285;28;20041;-30
2022/08/21 11:36:57;;;;;;;0.60;0.60;;;;;;;22.25;54.34;96603.09;10325559;28;20501;-29
2022/08/21 11:42:24;;;;;;;0.70;0.70;;;;;;;22.28;54.25;96610.66;10324674;28;20042;-31
2022/08/21 11:47:51;;;;;;;0.60;0.60;;;;;;;22.22;54.30;96603.09;10323401;28;20077;-31
2022/08/21 11:53:21;;;;;;;;;;;;;;;22.19;54.48;96599.78;10320959;28;20113;-30
2022/08/21 11:58:36;;;;;;;0.63;0.63;;;;;;;22.17;54.63;96599.81;10320300;28;19914;-30
2022/08/21 12:03:44;;;;;;;1.08;0.80;;;;;;;22.17;54.56;96597.25;10321539;28;20042;-29
2022/08/21 12:08:56;;;;;;;0.82;0.60;;;;;;;22.37;54.07;96591.81;10320919;28;20033;-30
2022/08/21 12:14:12;;;;;;;0.68;0.50;;;;;;;22.38;54.01;96586.69;10324486;28;20034;-30
2022/08/21 12:19:34;;;;;;;;;;;;;;;22.29;54.35;96586.84;10322896;28;20117;-29
2022/08/21 12:24:43;;;;;;;0.50;0.50;;;;;;;22.25;54.39;96589.47;10318710;28;19941;-29
2022/08/21 12:29:58;;;;;;;0.50;0.50;;;;;;;22.22;54.57;96579.34;10324278;28;20037;-29
2022/08/21 12:35:13;;;;;;;0.80;0.70;;;;;;;22.21;54.56;96586.13;10318705;28;20093;-29
2022/08/21 12:40:22;;;;;;;0.75;0.68;;;;;;;22.20;54.43;96581.91;10321047;28;20471;-31
2022/08/21 12:45:36;;;;;;;0.90;0.90;;;;;;;22.20;54.61;96579.34;10323520;28;20474;-29
2022/08/21 12:50:42;;;;;;;0.45;0.45;;;;;;;22.27;54.38;96578.38;10321226;28;20097;-30
2022/08/21 12:55:43;;;;;;;0.60;0.60;;;;;;;22.42;54.18;96573.06;10317422;28;20031;-29
2022/08/21 13:00:51;;;;;;;0.38;0.38;;;;;;;22.37;54.14;96573.94;10315469;28;20027;-30
2022/08/21 13:05:53;;;;;;;0.50;0.47;;;;;;;22.28;54.47;96571.56;10323025;28;20440;-29
2022/08/21 13:11:00;;;;;;;0.50;0.50;;;;;;;22.27;54.38;96573.28;10321852;28;20516;-28
2022/08/21 13:16:06;;;;;;;0.55;0.50;;;;;;;22.23;54.35;96575.91;10316396;28;20038;-29
2022/08/21 13:21:13;;;;;;;0.60;0.50;;;;;;;22.22;54.56;96569.13;10323208;28;20412;-29
2022/08/21 13:26:18;;;;;;;1.08;0.70;;;;;;;22.23;54.36;96569.09;10320773;28;20042;-29
2022/08/21 13:31:24;;;;;;;0.70;0.60;;;;;;;22.21;54.52;96563.19;10323710;28;20041;-30
2022/08/21 13:36:40;;;;;;;0.70;0.70;;;;;;;22.32;54.40;96558.72;10329931;28;20056;-29
2022/08/21 13:41:43;;;;;;;0.85;0.80;;;;;;;22.44;54.16;96556.00;10327509;28;20049;-29
2022/08/21 13:46:46;;;;;;;0.52;0.52;;;;;;;22.34;54.07;96554.47;10329877;28;20030;-30
2022/08/21 13:51:47;;;;;;;0.50;0.50;;;;;;;22.29;54.33;96551.13;10328592;28;20523;-31
2022/08/21 13:56:48;;;;;;;0.90;0.90;;;;;;;22.27;54.34;96552.88;10324241;28;20393;-31
2022/08/21 14:01:54;;;;;;;0.50;0.50;;;;;;;22.24;54.51;96547.81;10324158;28;20041;-30
2022/08/21 14:06:54;;;;;;;0.85;0.50;;;;;;;22.22;54.48;96547.00;10328390;28;20270;-30
2022/08/21 14:11:57;;;;;;;0.70;0.70;;;;;;;22.25;54.70;96539.31;10327647;28;20031;-29
2022/08/21 14:17:04;;;;;;;0.60;0.60;;;;;;;22.37;54.56;96535.69;10327276;28;20034;-30
2022/08/21 14:22:23;;;;;;;0.43;0.43;;;;;;;22.47;54.44;96532.97;10326579;28;20042;-29
2022/08/21 14:27:23;;;;;;;0.50;0.50;;;;;;;22.53;54.26;96539.66;10328466;28;20034;-30
2022/08/21 14:32:31;;;;;;;0.67;0.67;;;;;;;22.52;54.34;96527.78;10326258;28;20405;-29
2022/08/21 14:37:32;;;;;;;1.17;0.60;;;;;;;22.51;54.36;96526.09;10324504;28;20113;-29
2022/08/21 14:42:32;;;;;;;1.00;0.80;;;;;;;22.50;54.28;96520.16;10327865;28;20143;-29
2022/08/21 14:47:33;;;;;;;0.60;0.60;;;;;;;22.52;54.44;96532.88;10324839;28;20038;-30
2022/08/21 14:52:33;;;;;;;0.50;0.50;;;;;;;22.50;54.49;96517.59;10323291;28;20037;-30
2022/08/21 14:57:34;;;;;;;0.67;0.60;;;;;;;22.51;54.45;96513.34;10327086;28;20026;-31
2022/08/21 15:02:34;;;;;;;0.73;0.73;;;;;;;22.51;54.64;96506.56;10324266;28;20049;-30
2022/08/21 15:07:35;;;;;;;0.83;0.70;;;;;;;22.54;54.63;96503.06;10325678;28;20033;-29
2022/08/21 15:12:35;;;;;;;0.70;0.70;;;;;;;22.57;54.60;96492.81;10326764;28;20125;-29
2022/08/21 15:17:36;;;;;;;0.77;0.70;;;;;;;22.54;54.70;96490.31;10324907;28;20035;-31
2022/08/21 15:22:37;;;;;;;0.60;0.60;;;;;;;22.54;54.70;96496.28;10325126;28;20037;-32
2022/08/21 15:27:37;;;;;;;0.60;0.60;;;;;;;22.53;54.85;96492.03;10325775;28;20497;-29
2022/08/21 15:32:39;;;;;;;0.70;0.70;;;;;;;22.55;54.77;96486.91;10325192;28;20038;-30
2022/08/21 15:37:40;;;;;;;0.80;0.70;;;;;;;22.52;54.78;96487.81;10322505;28;20041;-29
2022/08/21 15:42:42;;;;;;;1.45;0.73;;;;;;;22.38;54.68;96474.44;10325435;28;20049;-30
2022/08/21 15:47:44;;;;;;;1.02;0.60;;;;;;;22.31;54.92;96466.94;10321113;28;20113;-30
2022/08/21 15:52:45;;;;;;;0.70;0.60;;;;;;;22.38;55.21;96464.22;10319427;28;20035;-29
2022/08/21 15:57:48;;;;;;;0.80;0.80;;;;;;;22.50;55.08;96453.81;10325132;28;20034;-30
2022/08/21 16:02:54;;;;;;;0.40;0.40;;;;;;;22.41;54.62;96466.75;10321994;28;20121;-30
2022/08/21 16:07:55;;;;;;;0.82;0.60;;;;;;;22.30;54.81;96462.72;10323805;28;20026;-30
2022/08/21 16:13:00;;;;;;;0.50;0.50;;;;;;;22.25;54.75;96462.81;10326772;28;20052;-30
2022/08/21 16:18:00;;;;;;;0.30;0.30;;;;;;;22.23;54.80;96459.41;10325321;28;20376;-30
2022/08/21 16:23:01;;;;;;;0.73;0.57;;;;;;;22.21;54.81;96462.84;10324434;28;20204;-30
2022/08/21 16:28:02;;;;;;;0.50;0.50;;;;;;;22.17;54.86;96449.34;10327149;28;20032;-29
2022/08/21 16:33:04;;;;;;;0.50;0.40;;;;;;;22.19;54.88;96468.00;10320350;28;20405;-29
2022/08/21 16:38:05;;;;;;;0.50;0.50;;;;;;;22.29;55.20;96461.88;10321262;28;20058;-29
2022/08/21 16:43:05;;;;;;;0.60;0.60;;;;;;;22.46;55.40;96449.66;10324177;28;20084;-29
2022/08/21 16:48:08;;;;;;;0.63;0.50;;;;;;;22.40;55.07;96452.28;10323447;28;20031;-29
2022/08/21 16:53:08;;;;;;;0.38;0.38;;;;;;;22.31;54.87;96455.00;10319224;28;20049;-31
2022/08/21 16:58:18;;;;;;;0.50;0.50;;;;;;;22.24;54.78;96448.34;10324100;28;20042;-29
2022/08/21 17:03:23;;;;;;;0.52;0.47;;;;;;;22.20;54.86;96443.34;10316448;28;20482;-31
2022/08/21 17:08:24;;;;;;;0.37;0.37;;;;;;;22.19;54.82;96445.06;10326426;28;20062;-31
2022/08/21 17:13:26;;;;;;;0.40;0.40;;;;;;;22.18;55.08;96451.03;10330894;28;20121;-29
2022/08/21 17:18:26;;;;;;;0.40;0.40;;;;;;;22.16;54.69;96447.66;10329802;28;20289;-30
2022/08/21 17:23:27;;;;;;;0.50;0.43;;;;;;;22.24;55.43;96445.78;10328719;28;20485;-31
2022/08/21 17:28:30;;;;;;;0.40;0.40;;;;;;;22.42;56.20;96448.03;10331268;28;20030;-29
2022/08/21 17:33:37;;;;;;;0.35;0.35;;;;;;;22.38;55.04;96445.53;10327497;28;20034;-29
2022/08/21 17:38:38;;;;;;;0.55;0.55;;;;;;;22.27;54.78;96455.97;10324542;28;20046;-31
2022/08/21 17:43:39;;;;;;;0.60;0.60;;;;;;;22.20;54.81;96456.94;10329930;28;20045;-31
2022/08/21 17:48:39;;;;;;;0.38;0.20;;;;;;;22.17;54.50;96457.00;10327104;28;20351;-29
2022/08/21 17:53:39;;;;;;;0.30;0.30;;;;;;;22.17;54.74;96462.09;10324168;28;20428;-30
2022/08/21 17:58:44;;;;;;;0.85;0.68;;;;;;;22.15;55.05;96460.44;10330083;28;20051;-32
2022/08/21 18:03:48;;;;;;;0.38;0.38;;;;;;;22.15;54.99;96466.38;10324990;28;20042;-30
2022/08/21 18:08:49;;;;;;;0.60;0.40;;;;;;;22.25;55.45;96465.34;10324910;28;20038;-30
2022/08/21 18:13:51;;;;;;;0.50;0.50;;;;;;;22.44;56.16;96476.06;10328599;28;20524;-30
2022/08/21 18:18:52;;;;;;;0.30;0.30;;;;;;;22.39;54.66;96485.50;10326499;28;20045;-28
2022/08/21 18:23:54;;;;;;;0.45;0.45;;;;;;;22.30;55.04;96480.56;10326140;28;20507;-30
2022/08/21 18:28:59;;;;;;;0.40;0.40;;;;;;;22.26;54.94;96489.13;10328580;28;20058;-29
2022/08/21 18:34:04;;;;;;;0.50;0.50;;;;;;;22.24;54.98;96488.31;10326464;28;20030;-30
2022/08/21 18:39:05;;;;;;;0.50;0.50;;;;;;;22.10;55.02;96467.31;10325022;28;20196;-28
2022/08/21 18:44:05;;;;;;;0.60;0.60;;;;;;;22.21;54.89;96489.22;10327728;28;20100;-29
2022/08/21 18:49:06;;;;;;;0.50;0.50;;;;;;;22.22;54.98;96497.72;10326831;28;20501;-29
2022/08/21 18:54:06;;;;;;;0.50;0.50;;;;;;;22.28;55.32;96498.44;10322309;28;20300;-29
2022/08/21 18:59:09;;;;;;;0.77;0.70;;;;;;;22.46;56.15;96503.22;10327566;28;20798;-29
2022/08/21 19:04:10;;;;;;;0.95;0.63;;;;;;;22.41;54.88;96499.91;10322404;28;20047;-29
2022/08/21 19:09:10;;;;;;;0.40;0.40;;;;;;;22.33;55.05;96516.22;10325536;28;20481;-29
2022/08/21 19:14:13;;;;;;;0.70;0.60;;;;;;;22.28;55.04;96521.41;10326066;28;20038;-29
2022/08/21 19:19:16;;;;;;;0.40;0.40;;;;;;;22.27;54.97;96524.81;10324645;28;20114;-29
2022/08/21 19:24:16;;;;;;;0.40;0.40;;;;;;;22.23;54.80;96525.72;10322603;28;20038;-29
2022/08/21 19:29:18;;;;;;;0.57;0.57;;;;;;;22.23;55.03;96524.91;10325595;28;20456;-29
2022/08/21 19:34:22;;;;;;;0.80;0.60;;;;;;;22.22;55.14;96518.94;10324395;28;20138;-31
2022/08/21 19:39:23;;;;;;;0.77;0.63;;;;;;;22.29;55.49;96528.19;10322366;28;20169;-30
2022/08/21 19:44:27;;;;;;;0.60;0.60;;;;;;;22.46;56.06;96528.75;10325534;28;20031;-28
2022/08/21 19:49:31;;;;;;;0.50;0.50;;;;;;;22.42;54.99;96532.22;10323023;28;20428;-29
2022/08/21 19:54:31;;;;;;;0.30;0.30;;;;;;;22.32;55.02;96533.22;10320066;28;20041;-28
2022/08/21 19:59:34;;;;;;;0.57;0.40;;;;;;;22.28;54.90;96531.59;10325790;28;20037;-30
2022/08/21 20:04:35;;;;;;;0.52;0.52;;;;;;;22.25;54.98;96529.13;10320287;28;20046;-30
2022/08/21 20:09:36;;;;;;;0.50;0.50;;;;;;;22.24;55.01;96526.59;10323277;28;20386;-29
2022/08/21 20:14:42;;;;;;;0.60;0.50;;;;;;;22.20;55.02;96523.25;10323889;28;20038;-30
2022/08/21 20:19:44;;;;;;;0.47;0.47;;;;;;;22.21;54.82;96517.28;10324663;28;20077;-28
2022/08/21 20:24:45;;;;;;;0.47;0.47;;;;;;;22.28;55.61;96518.00;10322464;28;20640;-29
2022/08/21 20:29:45;;;;;;;0.60;0.60;;;;;;;22.47;55.69;96515.13;10324339;28;20034;-29
2022/08/21 20:34:46;;;;;;;0.60;0.38;;;;;;;22.41;54.93;96507.56;10323674;28;20647;-29
2022/08/21 20:39:46;;;;;;;0.40;0.40;;;;;;;22.34;54.96;96525.53;10319435;28;20412;-30
2022/08/21 20:44:47;;;;;;;0.40;0.40;;;;;;;22.30;54.94;96517.09;10330604;28;20046;-29
2022/08/21 20:49:54;;;;;;;0.60;0.60;;;;;;;22.27;55.06;96522.28;10331104;28;20104;-29
2022/08/21 20:55:02;;;;;;;0.57;0.57;;;;;;;22.24;55.01;96517.22;10330400;28;20073;-29
2022/08/21 21:00:12;;;;;;;0.73;0.60;;;;;;;22.24;54.98;96522.31;10328859;28;20050;-29
2022/08/21 21:05:32;;;;;;;1.40;0.60;;;;;;;22.22;54.93;96518.94;10330037;28;20100;-29
2022/08/21 21:10:50;;;;;;;0.60;0.40;;;;;;;22.35;55.37;96520.41;10330387;28;20092;-29
2022/08/21 21:15:55;;;;;;;0.68;0.68;;;;;;;22.49;55.67;96520.19;10323486;28;20042;-30
2022/08/21 21:21:13;;;;;;;0.40;0.40;;;;;;;22.40;54.99;96523.72;10331440;28;20034;-30
2022/08/21 21:26:26;;;;;;;0.50;0.50;;;;;;;22.27;55.13;96509.53;10326472;28;20044;-30
2022/08/21 21:31:27;;;;;;;0.98;0.70;;;;;;;22.31;55.11;96523.88;10329016;28;20031;-31
2022/08/21 21:36:31;;;;;;;0.63;0.47;;;;;;;22.28;54.92;96523.94;10325307;28;20034;-30
2022/08/21 21:41:39;;;;;;;0.40;0.40;;;;;;;22.26;55.13;96519.75;10327632;28;20045;-30
2022/08/21 21:46:59;;;;;;;0.60;0.55;;;;;;;22.24;55.07;96527.41;10323138;28;20496;-29
2022/08/21 21:52:02;;;;;;;0.68;0.60;;;;;;;22.23;54.93;96528.28;10324008;28;20041;-29
2022/08/21 21:57:22;;;;;;;0.60;0.60;;;;;;;22.37;55.29;96526.34;10327193;28;20048;-29
2022/08/21 22:02:40;;;;;;;0.73;0.70;;;;;;;22.49;54.84;96522.75;10325953;28;20053;-30
2022/08/21 22:08:18;;;;;;;0.50;0.50;;;;;;;22.31;55.01;96518.78;10323360;28;20034;-30
2022/08/21 22:13:30;;;;;;;0.50;0.50;;;;;;;22.32;54.92;96528.13;10319332;28;20173;-30
2022/08/21 22:18:37;;;;;;;0.60;0.60;;;;;;;22.28;55.27;96526.50;10325920;28;20115;-29
2022/08/21 22:23:51;;;;;;;0.57;0.57;;;;;;;22.26;55.08;96530.78;10325226;28;20069;-29
2022/08/21 22:28:52;;;;;;;0.80;0.70;;;;;;;22.28;55.14;96525.66;10324999;28;20089;-29
2022/08/21 22:34:02;;;;;;;0.60;0.60;;;;;;;22.28;55.11;96531.59;10324291;28;20126;-29
2022/08/21 22:39:05;;;;;;;0.52;0.52;;;;;;;22.25;55.29;96518.91;10325436;28;20564;-30
2022/08/21 22:44:07;;;;;;;0.57;0.57;;;;;;;22.43;55.63;96522.84;10328065;28;20045;-29
2022/08/21 22:49:19;;;;;;;0.40;0.40;;;;;;;22.49;54.65;96517.66;10326531;28;20137;-29
2022/08/21 22:54:32;;;;;;;0.40;0.40;;;;;;;22.33;54.87;96524.69;10322651;28;20511;-29
2022/08/21 22:59:37;;;;;;;0.40;0.40;;;;;;;22.25;54.92;96524.00;10327226;28;20468;-29
2022/08/21 23:04:47;;;;;;;0.70;0.60;;;;;;;22.22;54.89;96518.13;10321589;28;20501;-30
2022/08/21 23:09:48;;;;;;;0.60;0.60;;;;;;;22.26;54.97;96520.59;10321984;28;20034;-29
2022/08/21 23:14:50;;;;;;;0.57;0.57;;;;;;;22.24;55.01;96517.22;10328657;28;20084;-30
2022/08/21 23:20:35;;;;;;;0.93;0.77;;;;;;;22.22;54.98;96507.94;10327235;28;20030;-29
2022/08/21 23:25:44;;;;;;;1.25;0.70;;;;;;;22.24;55.50;96511.28;10319719;28;20050;-29
2022/08/21 23:31:12;;;;;;;1.27;0.70;;;;;;;22.44;55.23;96510.09;10328403;28;20045;-28
2022/08/21 23:42:34;;;;;;;1.58;0.30;;;;;;;22.32;54.95;96507.72;10324727;28;20042;-29
2022/08/21 23:48:07;;;;;;;0.85;0.57;;;;;;;22.24;54.91;96507.00;10320330;28;20509;-29
2022/08/21 23:53:31;;;;;;;0.93;0.50;;;;;;;22.21;54.85;96512.16;10317551;28;20526;-29